sensor_id;sensor_type;location;lat;lon;timestamp;P1;durP1;ratioP1;P2;durP2;ratioP2
48209;SDS011;33999;52.252;9.616;2022-09-03T00:06:14;2.50;;;1.10;;
48209;SDS011;33999;52.252;9.616;2022-09-03T00:09:26;2.05;;;1.00;;
48209;SDS011;33999;52.252;9.616;2022-09-03T00:12:32;3.03;;;1.00;;
48209;SDS011;33999;52.252;9.616;2022-09-03T00:15:39;2.88;;;0.98;;
48209;SDS011;33999;52.252;9.616;2022-09-03T00:19:02;3.85;;;1.00;;
48209;SDS011;33999;52.252;9.616;2022-09-03T00:22:08;3.28;;;0.90;;
48209;SDS011;33999;52.252;9.616;2022-09-03T00:25:16;2.80;;;0.90;;
48209;SDS011;33999;52.252;9.616;2022-09-03T00:28:26;2.75;;;1.00;;
48209;SDS011;33999;52.252;9.616;2022-09-03T00:31:38;2.35;;;1.00;;
48209;SDS011;33999;52.252;9.616;2022-09-03T00:34:48;1.70;;;0.95;;
48209;SDS011;33999;52.252;9.616;2022-09-03T00:37:56;3.53;;;1.10;;
48209;SDS011;33999;52.252;9.616;2022-09-03T00:51:12;2.35;;;1.00;;
48209;SDS011;33999;52.252;9.616;2022-09-03T00:54:30;4.57;;;1.20;;
48209;SDS011;33999;52.252;9.616;2022-09-03T01:01:19;2.03;;;1.00;;
48209;SDS011;33999;52.252;9.616;2022-09-03T01:04:32;3.53;;;1.00;;
48209;SDS011;33999;52.252;9.616;2022-09-03T01:07:58;3.00;;;1.10;;
48209;SDS011;33999;52.252;9.616;2022-09-03T01:14:27;2.25;;;1.00;;
48209;SDS011;33999;52.252;9.616;2022-09-03T01:31:06;3.45;;;1.10;;
48209;SDS011;33999;52.252;9.616;2022-09-03T01:34:52;3.63;;;1.10;;
48209;SDS011;33999;52.252;9.616;2022-09-03T01:51:37;4.88;;;1.33;;
48209;SDS011;33999;52.252;9.616;2022-09-03T01:54:44;3.88;;;1.40;;
48209;SDS011;33999;52.252;9.616;2022-09-03T02:02:14;4.28;;;1.30;;
48209;SDS011;33999;52.252;9.616;2022-09-03T02:04:58;3.47;;;1.20;;
48209;SDS011;33999;52.252;9.616;2022-09-03T02:08:06;4.75;;;1.48;;
48209;SDS011;33999;52.252;9.616;2022-09-03T02:11:11;2.83;;;1.30;;
48209;SDS011;33999;52.252;9.616;2022-09-03T02:14:13;4.45;;;1.30;;
48209;SDS011;33999;52.252;9.616;2022-09-03T02:17:15;3.03;;;1.40;;
48209;SDS011;33999;52.252;9.616;2022-09-03T02:20:19;3.58;;;1.30;;
48209;SDS011;33999;52.252;9.616;2022-09-03T02:23:22;2.92;;;1.20;;
48209;SDS011;33999;52.252;9.616;2022-09-03T02:26:28;3.03;;;1.33;;
48209;SDS011;33999;52.252;9.616;2022-09-03T02:29:30;2.85;;;1.20;;
48209;SDS011;33999;52.252;9.616;2022-09-03T02:32:33;2.95;;;1.50;;
48209;SDS011;33999;52.252;9.616;2022-09-03T02:35:35;3.80;;;1.30;;
48209;SDS011;33999;52.252;9.616;2022-09-03T02:38:36;2.78;;;1.10;;
48209;SDS011;33999;52.252;9.616;2022-09-03T02:41:39;3.25;;;1.20;;
48209;SDS011;33999;52.252;9.616;2022-09-03T02:44:45;2.92;;;1.30;;
48209;SDS011;33999;52.252;9.616;2022-09-03T02:51:11;3.58;;;1.33;;
48209;SDS011;33999;52.252;9.616;2022-09-03T02:54:14;3.55;;;1.40;;
48209;SDS011;33999;52.252;9.616;2022-09-03T02:57:21;2.97;;;1.63;;
48209;SDS011;33999;52.252;9.616;2022-09-03T03:00:28;3.83;;;1.20;;
48209;SDS011;33999;52.252;9.616;2022-09-03T03:03:29;2.35;;;1.20;;
48209;SDS011;33999;52.252;9.616;2022-09-03T03:06:32;2.83;;;1.10;;
48209;SDS011;33999;52.252;9.616;2022-09-03T03:09:33;3.05;;;1.20;;
48209;SDS011;33999;52.252;9.616;2022-09-03T03:12:35;3.42;;;1.15;;
48209;SDS011;33999;52.252;9.616;2022-09-03T03:15:38;3.42;;;1.35;;
48209;SDS011;33999;52.252;9.616;2022-09-03T03:18:40;3.08;;;1.33;;
48209;SDS011;33999;52.252;9.616;2022-09-03T03:21:41;2.92;;;1.25;;
48209;SDS011;33999;52.252;9.616;2022-09-03T03:24:43;2.65;;;1.20;;
48209;SDS011;33999;52.252;9.616;2022-09-03T03:27:45;3.65;;;1.27;;
48209;SDS011;33999;52.252;9.616;2022-09-03T03:30:47;2.80;;;1.10;;
48209;SDS011;33999;52.252;9.616;2022-09-03T03:33:50;2.92;;;1.20;;
48209;SDS011;33999;52.252;9.616;2022-09-03T03:36:55;3.22;;;1.40;;
48209;SDS011;33999;52.252;9.616;2022-09-03T03:39:57;4.20;;;1.52;;
48209;SDS011;33999;52.252;9.616;2022-09-03T03:42:59;3.55;;;1.30;;
48209;SDS011;33999;52.252;9.616;2022-09-03T03:46:01;2.75;;;1.25;;
48209;SDS011;33999;52.252;9.616;2022-09-03T03:49:03;4.22;;;1.40;;
48209;SDS011;33999;52.252;9.616;2022-09-03T03:52:07;2.88;;;1.40;;
48209;SDS011;33999;52.252;9.616;2022-09-03T03:55:08;2.90;;;1.20;;
48209;SDS011;33999;52.252;9.616;2022-09-03T03:58:10;2.83;;;1.13;;
48209;SDS011;33999;52.252;9.616;2022-09-03T04:01:13;2.50;;;1.40;;
48209;SDS011;33999;52.252;9.616;2022-09-03T04:04:17;3.33;;;1.40;;
48209;SDS011;33999;52.252;9.616;2022-09-03T04:07:19;5.82;;;1.40;;
48209;SDS011;33999;52.252;9.616;2022-09-03T04:10:22;5.15;;;1.20;;
48209;SDS011;33999;52.252;9.616;2022-09-03T04:13:23;2.85;;;1.20;;
48209;SDS011;33999;52.252;9.616;2022-09-03T04:16:26;2.22;;;1.13;;
48209;SDS011;33999;52.252;9.616;2022-09-03T04:19:28;4.95;;;1.35;;
48209;SDS011;33999;52.252;9.616;2022-09-03T04:22:30;3.05;;;1.40;;
48209;SDS011;33999;52.252;9.616;2022-09-03T04:25:32;3.30;;;1.30;;
48209;SDS011;33999;52.252;9.616;2022-09-03T04:28:34;3.13;;;1.45;;
48209;SDS011;33999;52.252;9.616;2022-09-03T04:31:37;3.83;;;1.30;;
48209;SDS011;33999;52.252;9.616;2022-09-03T04:34:40;4.65;;;1.60;;
48209;SDS011;33999;52.252;9.616;2022-09-03T04:37:43;3.08;;;1.27;;
48209;SDS011;33999;52.252;9.616;2022-09-03T04:40:50;2.47;;;1.15;;
48209;SDS011;33999;52.252;9.616;2022-09-03T04:43:54;3.55;;;1.35;;
48209;SDS011;33999;52.252;9.616;2022-09-03T04:46:57;3.38;;;1.40;;
48209;SDS011;33999;52.252;9.616;2022-09-03T04:50:01;3.90;;;1.38;;
48209;SDS011;33999;52.252;9.616;2022-09-03T04:53:46;3.85;;;1.40;;
48209;SDS011;33999;52.252;9.616;2022-09-03T04:57:30;3.65;;;1.50;;
48209;SDS011;33999;52.252;9.616;2022-09-03T05:01:19;3.85;;;1.50;;
48209;SDS011;33999;52.252;9.616;2022-09-03T05:04:51;3.47;;;1.30;;
48209;SDS011;33999;52.252;9.616;2022-09-03T05:08:36;3.38;;;1.52;;
48209;SDS011;33999;52.252;9.616;2022-09-03T05:12:03;3.80;;;1.40;;
48209;SDS011;33999;52.252;9.616;2022-09-03T05:16:17;4.60;;;1.52;;
48209;SDS011;33999;52.252;9.616;2022-09-03T05:19:43;3.83;;;1.53;;
48209;SDS011;33999;52.252;9.616;2022-09-03T05:23:14;3.85;;;1.40;;
48209;SDS011;33999;52.252;9.616;2022-09-03T05:26:48;4.90;;;1.42;;
48209;SDS011;33999;52.252;9.616;2022-09-03T05:29:53;4.43;;;1.35;;
48209;SDS011;33999;52.252;9.616;2022-09-03T05:36:54;3.13;;;1.40;;
48209;SDS011;33999;52.252;9.616;2022-09-03T05:40:00;3.50;;;1.35;;
48209;SDS011;33999;52.252;9.616;2022-09-03T05:43:02;2.58;;;1.20;;
48209;SDS011;33999;52.252;9.616;2022-09-03T05:49:12;3.65;;;1.40;;
48209;SDS011;33999;52.252;9.616;2022-09-03T05:52:13;4.43;;;1.40;;
48209;SDS011;33999;52.252;9.616;2022-09-03T05:55:17;3.28;;;1.30;;
48209;SDS011;33999;52.252;9.616;2022-09-03T05:58:23;3.15;;;1.20;;
48209;SDS011;33999;52.252;9.616;2022-09-03T06:02:03;4.65;;;1.63;;
48209;SDS011;33999;52.252;9.616;2022-09-03T06:05:05;3.85;;;1.40;;
48209;SDS011;33999;52.252;9.616;2022-09-03T06:08:08;3.38;;;1.42;;
48209;SDS011;33999;52.252;9.616;2022-09-03T06:11:12;5.05;;;1.40;;
48209;SDS011;33999;52.252;9.616;2022-09-03T06:14:14;5.03;;;1.50;;
48209;SDS011;33999;52.252;9.616;2022-09-03T06:17:29;3.95;;;1.33;;
48209;SDS011;33999;52.252;9.616;2022-09-03T06:20:35;4.22;;;1.30;;
48209;SDS011;33999;52.252;9.616;2022-09-03T06:23:37;4.75;;;1.23;;
48209;SDS011;33999;52.252;9.616;2022-09-03T06:26:46;4.00;;;1.30;;
48209;SDS011;33999;52.252;9.616;2022-09-03T06:29:48;4.93;;;1.38;;
48209;SDS011;33999;52.252;9.616;2022-09-03T06:32:50;2.97;;;1.42;;
48209;SDS011;33999;52.252;9.616;2022-09-03T06:35:53;5.07;;;1.40;;
48209;SDS011;33999;52.252;9.616;2022-09-03T06:38:58;3.60;;;1.40;;
48209;SDS011;33999;52.252;9.616;2022-09-03T06:42:00;3.90;;;1.50;;
48209;SDS011;33999;52.252;9.616;2022-09-03T06:45:09;4.88;;;1.52;;
48209;SDS011;33999;52.252;9.616;2022-09-03T06:48:12;4.40;;;1.30;;
48209;SDS011;33999;52.252;9.616;2022-09-03T06:51:15;3.65;;;1.30;;
48209;SDS011;33999;52.252;9.616;2022-09-03T06:54:19;2.55;;;1.23;;
48209;SDS011;33999;52.252;9.616;2022-09-03T06:57:21;5.25;;;1.38;;
48209;SDS011;33999;52.252;9.616;2022-09-03T07:00:25;2.60;;;1.27;;
48209;SDS011;33999;52.252;9.616;2022-09-03T07:03:26;3.58;;;1.30;;
48209;SDS011;33999;52.252;9.616;2022-09-03T07:06:34;3.22;;;1.27;;
48209;SDS011;33999;52.252;9.616;2022-09-03T07:09:39;3.80;;;1.30;;
48209;SDS011;33999;52.252;9.616;2022-09-03T07:12:44;4.50;;;1.45;;
48209;SDS011;33999;52.252;9.616;2022-09-03T07:19:00;3.45;;;1.30;;
48209;SDS011;33999;52.252;9.616;2022-09-03T07:22:04;5.18;;;1.48;;
48209;SDS011;33999;52.252;9.616;2022-09-03T07:25:05;2.90;;;1.10;;
48209;SDS011;33999;52.252;9.616;2022-09-03T07:28:10;4.30;;;1.40;;
48209;SDS011;33999;52.252;9.616;2022-09-03T07:31:14;4.82;;;1.35;;
48209;SDS011;33999;52.252;9.616;2022-09-03T07:34:21;6.55;;;1.50;;
48209;SDS011;33999;52.252;9.616;2022-09-03T07:37:28;3.88;;;1.50;;
48209;SDS011;33999;52.252;9.616;2022-09-03T07:40:29;3.80;;;1.33;;
48209;SDS011;33999;52.252;9.616;2022-09-03T07:43:34;4.55;;;1.40;;
48209;SDS011;33999;52.252;9.616;2022-09-03T07:46:40;3.08;;;1.25;;
48209;SDS011;33999;52.252;9.616;2022-09-03T07:49:42;4.22;;;1.50;;
48209;SDS011;33999;52.252;9.616;2022-09-03T07:59:06;3.72;;;1.33;;
48209;SDS011;33999;52.252;9.616;2022-09-03T08:02:13;3.60;;;1.33;;
48209;SDS011;33999;52.252;9.616;2022-09-03T08:05:14;3.33;;;1.35;;
48209;SDS011;33999;52.252;9.616;2022-09-03T08:08:20;2.65;;;1.00;;
48209;SDS011;33999;52.252;9.616;2022-09-03T08:11:22;4.22;;;1.17;;
48209;SDS011;33999;52.252;9.616;2022-09-03T08:14:24;3.15;;;1.30;;
48209;SDS011;33999;52.252;9.616;2022-09-03T08:17:26;5.18;;;1.30;;
48209;SDS011;33999;52.252;9.616;2022-09-03T08:20:28;4.47;;;1.50;;
48209;SDS011;33999;52.252;9.616;2022-09-03T08:23:30;3.00;;;1.10;;
48209;SDS011;33999;52.252;9.616;2022-09-03T08:26:35;4.05;;;1.30;;
48209;SDS011;33999;52.252;9.616;2022-09-03T08:29:39;3.97;;;1.20;;
48209;SDS011;33999;52.252;9.616;2022-09-03T08:32:40;2.58;;;1.20;;
48209;SDS011;33999;52.252;9.616;2022-09-03T08:35:52;4.00;;;1.20;;
48209;SDS011;33999;52.252;9.616;2022-09-03T08:38:55;3.88;;;1.40;;
48209;SDS011;33999;52.252;9.616;2022-09-03T08:45:16;4.75;;;1.20;;
48209;SDS011;33999;52.252;9.616;2022-09-03T08:48:21;2.40;;;1.27;;
48209;SDS011;33999;52.252;9.616;2022-09-03T08:51:26;3.83;;;1.20;;
48209;SDS011;33999;52.252;9.616;2022-09-03T08:54:28;4.63;;;1.30;;
48209;SDS011;33999;52.252;9.616;2022-09-03T08:57:42;2.50;;;1.20;;
48209;SDS011;33999;52.252;9.616;2022-09-03T09:07:52;4.65;;;1.50;;
48209;SDS011;33999;52.252;9.616;2022-09-03T09:24:22;3.78;;;1.30;;
48209;SDS011;33999;52.252;9.616;2022-09-03T09:27:26;3.88;;;1.40;;
48209;SDS011;33999;52.252;9.616;2022-09-03T09:30:30;3.53;;;1.27;;
48209;SDS011;33999;52.252;9.616;2022-09-03T09:33:35;3.55;;;1.33;;
48209;SDS011;33999;52.252;9.616;2022-09-03T09:39:58;3.78;;;1.20;;
48209;SDS011;33999;52.252;9.616;2022-09-03T09:43:02;3.47;;;1.15;;
48209;SDS011;33999;52.252;9.616;2022-09-03T09:46:11;3.00;;;1.10;;
48209;SDS011;33999;52.252;9.616;2022-09-03T09:52:33;2.53;;;1.10;;
48209;SDS011;33999;52.252;9.616;2022-09-03T09:55:35;3.17;;;1.20;;
48209;SDS011;33999;52.252;9.616;2022-09-03T09:58:48;3.45;;;1.20;;
48209;SDS011;33999;52.252;9.616;2022-09-03T10:02:02;5.80;;;1.30;;
48209;SDS011;33999;52.252;9.616;2022-09-03T10:05:24;4.53;;;1.20;;
48209;SDS011;33999;52.252;9.616;2022-09-03T10:08:38;2.67;;;1.20;;
48209;SDS011;33999;52.252;9.616;2022-09-03T10:11:49;5.10;;;1.10;;
48209;SDS011;33999;52.252;9.616;2022-09-03T10:18:50;4.03;;;1.58;;
48209;SDS011;33999;52.252;9.616;2022-09-03T10:21:57;2.72;;;1.20;;
48209;SDS011;33999;52.252;9.616;2022-09-03T10:25:06;2.67;;;1.10;;
48209;SDS011;33999;52.252;9.616;2022-09-03T10:28:12;6.10;;;1.42;;
48209;SDS011;33999;52.252;9.616;2022-09-03T10:34:41;5.10;;;1.30;;
48209;SDS011;33999;52.252;9.616;2022-09-03T10:38:31;5.18;;;1.35;;
48209;SDS011;33999;52.252;9.616;2022-09-03T10:51:24;2.95;;;1.20;;
48209;SDS011;33999;52.252;9.616;2022-09-03T11:01:15;2.90;;;1.20;;
48209;SDS011;33999;52.252;9.616;2022-09-03T11:07:47;2.42;;;1.20;;
48209;SDS011;33999;52.252;9.616;2022-09-03T11:10:54;8.48;;;1.58;;
48209;SDS011;33999;52.252;9.616;2022-09-03T11:14:10;6.15;;;1.20;;
48209;SDS011;33999;52.252;9.616;2022-09-03T11:17:27;4.45;;;1.30;;
48209;SDS011;33999;52.252;9.616;2022-09-03T11:20:36;4.25;;;1.30;;
48209;SDS011;33999;52.252;9.616;2022-09-03T11:23:40;4.45;;;1.20;;
48209;SDS011;33999;52.252;9.616;2022-09-03T11:26:48;2.92;;;1.10;;
48209;SDS011;33999;52.252;9.616;2022-09-03T11:30:13;3.88;;;1.17;;
48209;SDS011;33999;52.252;9.616;2022-09-03T11:33:23;4.95;;;1.20;;
48209;SDS011;33999;52.252;9.616;2022-09-03T11:36:38;4.57;;;1.30;;
48209;SDS011;33999;52.252;9.616;2022-09-03T11:39:58;3.33;;;1.10;;
48209;SDS011;33999;52.252;9.616;2022-09-03T11:49:30;3.55;;;1.23;;
48209;SDS011;33999;52.252;9.616;2022-09-03T11:52:33;3.22;;;1.10;;
48209;SDS011;33999;52.252;9.616;2022-09-03T11:59:22;3.35;;;1.20;;
48209;SDS011;33999;52.252;9.616;2022-09-03T12:02:28;4.63;;;1.20;;
48209;SDS011;33999;52.252;9.616;2022-09-03T12:05:43;5.38;;;1.30;;
48209;SDS011;33999;52.252;9.616;2022-09-03T12:09:03;3.08;;;1.20;;
48209;SDS011;33999;52.252;9.616;2022-09-03T12:19:12;3.22;;;1.25;;
48209;SDS011;33999;52.252;9.616;2022-09-03T12:22:36;3.35;;;1.15;;
48209;SDS011;33999;52.252;9.616;2022-09-03T12:25:42;2.00;;;0.93;;
48209;SDS011;33999;52.252;9.616;2022-09-03T12:28:49;2.65;;;1.15;;
48209;SDS011;33999;52.252;9.616;2022-09-03T12:31:52;3.50;;;1.17;;
48209;SDS011;33999;52.252;9.616;2022-09-03T12:34:56;3.33;;;1.10;;
48209;SDS011;33999;52.252;9.616;2022-09-03T12:37:58;5.80;;;1.10;;
48209;SDS011;33999;52.252;9.616;2022-09-03T12:41:18;2.80;;;1.00;;
48209;SDS011;33999;52.252;9.616;2022-09-03T12:44:27;3.83;;;1.10;;
48209;SDS011;33999;52.252;9.616;2022-09-03T12:47:37;4.00;;;1.23;;
48209;SDS011;33999;52.252;9.616;2022-09-03T12:50:40;2.70;;;1.00;;
48209;SDS011;33999;52.252;9.616;2022-09-03T12:53:56;2.20;;;1.00;;
48209;SDS011;33999;52.252;9.616;2022-09-03T12:56:59;5.05;;;1.10;;
48209;SDS011;33999;52.252;9.616;2022-09-03T13:00:04;2.58;;;1.00;;
48209;SDS011;33999;52.252;9.616;2022-09-03T13:03:10;4.32;;;1.10;;
48209;SDS011;33999;52.252;9.616;2022-09-03T13:06:21;2.15;;;1.00;;
48209;SDS011;33999;52.252;9.616;2022-09-03T13:09:28;4.38;;;1.17;;
48209;SDS011;33999;52.252;9.616;2022-09-03T13:12:34;5.05;;;1.20;;
48209;SDS011;33999;52.252;9.616;2022-09-03T13:15:59;4.35;;;1.10;;
48209;SDS011;33999;52.252;9.616;2022-09-03T13:19:28;2.20;;;0.90;;
48209;SDS011;33999;52.252;9.616;2022-09-03T13:26:20;2.60;;;1.10;;
48209;SDS011;33999;52.252;9.616;2022-09-03T13:32:45;3.80;;;1.10;;
48209;SDS011;33999;52.252;9.616;2022-09-03T13:36:25;5.15;;;1.13;;
48209;SDS011;33999;52.252;9.616;2022-09-03T13:39:34;8.20;;;1.55;;
48209;SDS011;33999;52.252;9.616;2022-09-03T13:42:39;6.30;;;1.20;;
48209;SDS011;33999;52.252;9.616;2022-09-03T13:45:45;3.45;;;1.10;;
48209;SDS011;33999;52.252;9.616;2022-09-03T13:53:01;4.13;;;1.20;;
48209;SDS011;33999;52.252;9.616;2022-09-03T13:56:43;3.75;;;1.10;;
48209;SDS011;33999;52.252;9.616;2022-09-03T14:23:24;4.33;;;1.30;;
48209;SDS011;33999;52.252;9.616;2022-09-03T14:26:47;3.88;;;1.25;;
48209;SDS011;33999;52.252;9.616;2022-09-03T14:30:01;10.93;;;1.30;;
48209;SDS011;33999;52.252;9.616;2022-09-03T14:40:15;3.45;;;1.17;;
48209;SDS011;33999;52.252;9.616;2022-09-03T14:57:40;3.58;;;1.10;;
48209;SDS011;33999;52.252;9.616;2022-09-03T15:07:48;2.40;;;1.02;;
48209;SDS011;33999;52.252;9.616;2022-09-03T15:10:58;3.78;;;1.10;;
48209;SDS011;33999;52.252;9.616;2022-09-03T15:14:09;3.65;;;1.17;;
48209;SDS011;33999;52.252;9.616;2022-09-03T15:17:19;3.83;;;1.40;;
48209;SDS011;33999;52.252;9.616;2022-09-03T15:20:35;4.00;;;1.40;;
48209;SDS011;33999;52.252;9.616;2022-09-03T15:27:17;2.80;;;1.05;;
48209;SDS011;33999;52.252;9.616;2022-09-03T15:30:24;5.90;;;1.60;;
48209;SDS011;33999;52.252;9.616;2022-09-03T15:37:41;5.45;;;1.10;;
48209;SDS011;33999;52.252;9.616;2022-09-03T15:43:47;3.35;;;1.23;;
48209;SDS011;33999;52.252;9.616;2022-09-03T15:46:52;2.78;;;1.13;;
48209;SDS011;33999;52.252;9.616;2022-09-03T15:53:36;2.22;;;1.10;;
48209;SDS011;33999;52.252;9.616;2022-09-03T15:56:51;3.60;;;1.20;;
48209;SDS011;33999;52.252;9.616;2022-09-03T16:00:12;7.93;;;1.23;;
48209;SDS011;33999;52.252;9.616;2022-09-03T16:03:45;3.92;;;1.60;;
48209;SDS011;33999;52.252;9.616;2022-09-03T16:10:16;5.50;;;1.75;;
48209;SDS011;33999;52.252;9.616;2022-09-03T16:17:26;5.05;;;1.20;;
48209;SDS011;33999;52.252;9.616;2022-09-03T16:20:47;2.30;;;1.17;;
48209;SDS011;33999;52.252;9.616;2022-09-03T16:24:01;2.97;;;1.20;;
48209;SDS011;33999;52.252;9.616;2022-09-03T16:27:14;4.22;;;1.40;;
48209;SDS011;33999;52.252;9.616;2022-09-03T16:30:48;6.28;;;1.30;;
48209;SDS011;33999;52.252;9.616;2022-09-03T16:41:11;5.15;;;1.20;;
48209;SDS011;33999;52.252;9.616;2022-09-03T16:44:41;3.88;;;1.38;;
48209;SDS011;33999;52.252;9.616;2022-09-03T16:47:55;2.72;;;1.25;;
48209;SDS011;33999;52.252;9.616;2022-09-03T16:51:12;4.60;;;1.55;;
48209;SDS011;33999;52.252;9.616;2022-09-03T17:04:50;5.43;;;1.50;;
48209;SDS011;33999;52.252;9.616;2022-09-03T17:08:27;3.92;;;1.50;;
48209;SDS011;33999;52.252;9.616;2022-09-03T17:11:46;6.35;;;1.60;;
48209;SDS011;33999;52.252;9.616;2022-09-03T17:15:07;4.25;;;1.60;;
48209;SDS011;33999;52.252;9.616;2022-09-03T17:21:42;3.75;;;1.50;;
48209;SDS011;33999;52.252;9.616;2022-09-03T17:35:18;5.27;;;1.63;;
48209;SDS011;33999;52.252;9.616;2022-09-03T17:45:08;6.65;;;1.55;;
48209;SDS011;33999;52.252;9.616;2022-09-03T17:48:22;4.93;;;1.35;;
48209;SDS011;33999;52.252;9.616;2022-09-03T17:51:40;4.35;;;1.50;;
48209;SDS011;33999;52.252;9.616;2022-09-03T17:54:48;4.00;;;1.65;;
48209;SDS011;33999;52.252;9.616;2022-09-03T17:58:07;5.30;;;1.60;;
48209;SDS011;33999;52.252;9.616;2022-09-03T18:01:25;6.57;;;1.50;;
48209;SDS011;33999;52.252;9.616;2022-09-03T18:07:52;6.65;;;1.63;;
48209;SDS011;33999;52.252;9.616;2022-09-03T18:11:12;4.15;;;1.50;;
48209;SDS011;33999;52.252;9.616;2022-09-03T18:17:51;2.95;;;1.30;;
48209;SDS011;33999;52.252;9.616;2022-09-03T18:21:04;3.93;;;1.60;;
48209;SDS011;33999;52.252;9.616;2022-09-03T18:24:33;4.03;;;1.60;;
48209;SDS011;33999;52.252;9.616;2022-09-03T18:28:04;4.07;;;1.70;;
48209;SDS011;33999;52.252;9.616;2022-09-03T18:31:30;4.65;;;1.60;;
48209;SDS011;33999;52.252;9.616;2022-09-03T18:34:50;5.03;;;1.90;;
48209;SDS011;33999;52.252;9.616;2022-09-03T18:38:11;5.45;;;1.70;;
48209;SDS011;33999;52.252;9.616;2022-09-03T18:45:41;3.60;;;1.70;;
48209;SDS011;33999;52.252;9.616;2022-09-03T18:53:04;4.55;;;2.10;;
48209;SDS011;33999;52.252;9.616;2022-09-03T19:00:08;4.70;;;2.10;;
48209;SDS011;33999;52.252;9.616;2022-09-03T19:07:22;4.22;;;1.98;;
48209;SDS011;33999;52.252;9.616;2022-09-03T19:11:04;4.32;;;1.80;;
48209;SDS011;33999;52.252;9.616;2022-09-03T19:22:03;5.22;;;1.83;;
48209;SDS011;33999;52.252;9.616;2022-09-03T19:25:27;4.32;;;1.90;;
48209;SDS011;33999;52.252;9.616;2022-09-03T19:28:50;4.88;;;2.00;;
48209;SDS011;33999;52.252;9.616;2022-09-03T19:52:05;4.80;;;1.92;;
48209;SDS011;33999;52.252;9.616;2022-09-03T19:55:29;5.00;;;1.90;;
48209;SDS011;33999;52.252;9.616;2022-09-03T19:58:55;3.50;;;1.77;;
48209;SDS011;33999;52.252;9.616;2022-09-03T20:02:29;5.57;;;2.00;;
48209;SDS011;33999;52.252;9.616;2022-09-03T20:06:05;4.43;;;2.10;;
48209;SDS011;33999;52.252;9.616;2022-09-03T20:09:30;5.05;;;2.10;;
48209;SDS011;33999;52.252;9.616;2022-09-03T20:13:06;4.15;;;2.00;;
48209;SDS011;33999;52.252;9.616;2022-09-03T20:16:13;4.75;;;2.00;;
48209;SDS011;33999;52.252;9.616;2022-09-03T20:19:26;4.95;;;2.20;;
48209;SDS011;33999;52.252;9.616;2022-09-03T20:26:22;5.20;;;1.92;;
48209;SDS011;33999;52.252;9.616;2022-09-03T20:33:02;5.78;;;2.42;;
48209;SDS011;33999;52.252;9.616;2022-09-03T20:40:07;7.47;;;2.65;;
48209;SDS011;33999;52.252;9.616;2022-09-03T20:56:35;5.53;;;2.30;;
48209;SDS011;33999;52.252;9.616;2022-09-03T20:59:51;4.45;;;2.22;;
48209;SDS011;33999;52.252;9.616;2022-09-03T21:03:14;5.38;;;2.20;;
48209;SDS011;33999;52.252;9.616;2022-09-03T21:06:44;6.25;;;2.40;;
48209;SDS011;33999;52.252;9.616;2022-09-03T21:09:54;8.57;;;3.13;;
48209;SDS011;33999;52.252;9.616;2022-09-03T21:13:20;6.97;;;3.40;;
48209;SDS011;33999;52.252;9.616;2022-09-03T21:23:10;5.10;;;2.50;;
48209;SDS011;33999;52.252;9.616;2022-09-03T21:32:24;6.35;;;2.60;;
48209;SDS011;33999;52.252;9.616;2022-09-03T21:35:38;4.72;;;2.13;;
48209;SDS011;33999;52.252;9.616;2022-09-03T21:38:45;6.05;;;1.90;;
48209;SDS011;33999;52.252;9.616;2022-09-03T21:45:39;3.97;;;1.80;;
48209;SDS011;33999;52.252;9.616;2022-09-03T21:48:58;6.50;;;2.47;;
48209;SDS011;33999;52.252;9.616;2022-09-03T21:55:20;4.18;;;1.80;;
48209;SDS011;33999;52.252;9.616;2022-09-03T21:58:52;6.95;;;2.00;;
48209;SDS011;33999;52.252;9.616;2022-09-03T22:05:22;4.68;;;2.47;;
48209;SDS011;33999;52.252;9.616;2022-09-03T22:08:37;7.35;;;3.08;;
48209;SDS011;33999;52.252;9.616;2022-09-03T22:12:03;7.03;;;3.10;;
48209;SDS011;33999;52.252;9.616;2022-09-03T22:15:30;6.68;;;2.90;;
48209;SDS011;33999;52.252;9.616;2022-09-03T22:18:35;5.90;;;2.70;;
48209;SDS011;33999;52.252;9.616;2022-09-03T22:21:50;5.93;;;2.85;;
48209;SDS011;33999;52.252;9.616;2022-09-03T22:25:02;6.57;;;2.80;;
48209;SDS011;33999;52.252;9.616;2022-09-03T22:52:15;5.03;;;2.30;;
48209;SDS011;33999;52.252;9.616;2022-09-03T22:55:21;3.85;;;1.90;;
48209;SDS011;33999;52.252;9.616;2022-09-03T22:58:27;5.60;;;2.17;;
48209;SDS011;33999;52.252;9.616;2022-09-03T23:08:07;4.80;;;1.98;;
48209;SDS011;33999;52.252;9.616;2022-09-03T23:14:41;7.28;;;2.20;;
48209;SDS011;33999;52.252;9.616;2022-09-03T23:18:01;4.25;;;2.10;;
48209;SDS011;33999;52.252;9.616;2022-09-03T23:24:27;5.68;;;2.15;;
48209;SDS011;33999;52.252;9.616;2022-09-03T23:27:34;4.30;;;2.30;;
48209;SDS011;33999;52.252;9.616;2022-09-03T23:30:45;8.57;;;3.10;;
48209;SDS011;33999;52.252;9.616;2022-09-03T23:33:47;12.90;;;5.50;;
48209;SDS011;33999;52.252;9.616;2022-09-03T23:43:56;15.25;;;6.28;;
48209;SDS011;33999;52.252;9.616;2022-09-03T23:47:17;11.50;;;5.40;;
